Time;durP1;ratioP1;P1;durP2;ratioP2;P2;SDS_P1;SDS_P2;PMS_P1;PMS_P2;Temp;Humidity;BMP_temperature;BMP_pressure;BME280_temperature;BME280_humidity;BME280_pressure;Samples;Min_cycle;Max_cycle;Signal;HPM_P1;HPM_P2
2021/09/15 00:00:32;;;;;;;11.07;8.20;;;20.30;99.90;;;;;;5088608;28;20470;-58
2021/09/15 00:02:59;;;;;;;8.57;7.40;;;20.30;99.90;;;;;;5092915;28;20452;-59
2021/09/15 00:05:26;;;;;;;10.67;8.13;;;20.20;99.90;;;;;;5092075;28;20446;-59
2021/09/15 00:07:53;;;;;;;9.10;7.33;;;20.20;99.90;;;;;;5093127;28;20450;-59
2021/09/15 00:10:23;;;;;;;8.47;7.40;;;20.20;99.90;;;;;;5090723;28;20481;-59
2021/09/15 00:12:50;;;;;;;10.43;7.73;;;20.20;99.90;;;;;;5092946;28;20499;-58
2021/09/15 00:15:17;;;;;;;11.33;7.60;;;20.20;99.90;;;;;;5090859;28;20450;-59
2021/09/15 00:17:44;;;;;;;10.13;8.30;;;20.20;99.90;;;;;;5090632;28;20449;-58
2021/09/15 00:20:15;;;;;;;10.07;7.80;;;20.20;99.90;;;;;;5077233;28;20842;-59
2021/09/15 00:22:42;;;;;;;9.30;7.50;;;20.10;99.90;;;;;;5090809;28;20446;-58
2021/09/15 00:25:10;;;;;;;9.37;8.20;;;20.20;99.90;;;;;;5092730;28;20507;-59
2021/09/15 00:27:38;;;;;;;8.33;7.50;;;20.20;99.90;;;;;;5092689;28;20453;-58
2021/09/15 00:30:06;;;;;;;11.20;8.47;;;20.10;99.90;;;;;;5085962;28;20493;-59
2021/09/15 00:32:33;;;;;;;8.37;7.47;;;20.10;99.90;;;;;;5072050;28;20508;-59
2021/09/15 00:35:00;;;;;;;10.60;8.10;;;20.10;99.90;;;;;;5085344;28;20866;-58
2021/09/15 00:37:27;;;;;;;7.80;7.00;;;20.00;99.90;;;;;;5092555;28;20450;-59
2021/09/15 00:39:54;;;;;;;8.27;7.27;;;20.00;99.90;;;;;;5089647;28;20449;-59
2021/09/15 00:42:21;;;;;;;8.30;6.80;;;20.00;99.90;;;;;;5092223;28;20870;-59
2021/09/15 00:44:50;;;;;;;10.37;7.33;;;20.00;99.90;;;;;;5091912;28;20503;-58
2021/09/15 00:47:17;;;;;;;7.43;6.63;;;20.00;99.90;;;;;;5074227;28;20580;-58
2021/09/15 00:49:44;;;;;;;9.90;8.00;;;19.90;99.90;;;;;;5087567;28;20518;-59
2021/09/15 00:52:11;;;;;;;9.03;7.63;;;19.90;99.90;;;;;;5071662;28;20936;-58
2021/09/15 00:54:38;;;;;;;10.40;8.27;;;19.50;99.90;;;;;;5071993;28;20512;-59
2021/09/15 00:57:05;;;;;;;8.73;7.60;;;19.30;99.90;;;;;;5091412;28;20877;-58
2021/09/15 00:59:32;;;;;;;7.60;6.80;;;19.40;99.90;;;;;;5089421;28;20445;-58
2021/09/15 01:02:00;;;;;;;8.10;7.10;;;19.50;99.90;;;;;;5072487;28;20533;-58
2021/09/15 01:04:27;;;;;;;8.33;7.17;;;19.70;99.90;;;;;;5071966;28;20504;-58
2021/09/15 01:06:54;;;;;;;8.00;7.07;;;19.70;99.90;;;;;;5071905;28;20450;-59
2021/09/15 01:09:22;;;;;;;10.30;7.30;;;19.80;99.90;;;;;;5072845;28;20516;-60
2021/09/15 01:11:49;;;;;;;7.17;6.47;;;19.80;99.90;;;;;;5071392;28;20539;-59
2021/09/15 01:14:16;;;;;;;10.67;8.07;;;19.80;99.90;;;;;;5072638;28;20505;-59
2021/09/15 01:16:51;;;;;;;7.80;7.00;;;19.80;99.90;;;;;;5083063;28;20450;-59
2021/09/15 01:19:21;;;;;;;9.20;7.97;;;19.80;99.90;;;;;;5090983;28;20506;-59
2021/09/15 01:21:51;;;;;;;8.80;7.23;;;19.80;99.90;;;;;;5078120;28;20505;-59
2021/09/15 01:24:18;;;;;;;9.50;8.10;;;19.70;99.90;;;;;;5071669;28;20507;-59
2021/09/15 01:26:45;;;;;;;7.97;7.00;;;19.70;99.90;;;;;;5072978;28;20443;-59
2021/09/15 01:29:17;;;;;;;8.93;6.40;;;19.70;99.90;;;;;;5076741;28;20862;-59
2021/09/15 01:32:01;;;;;;;6.90;6.20;;;19.70;99.90;;;;;;5076487;28;20532;-59
2021/09/15 01:34:29;;;;;;;7.90;7.10;;;19.80;99.90;;;;;;5075610;28;20447;-59
2021/09/15 01:36:58;;;;;;;7.70;6.53;;;19.80;99.90;;;;;;5090180;28;20445;-59
2021/09/15 01:39:25;;;;;;;7.23;6.50;;;19.80;99.90;;;;;;5082058;28;20823;-58
2021/09/15 01:41:52;;;;;;;8.80;7.10;;;19.80;99.90;;;;;;5095376;28;20462;-59
2021/09/15 01:44:19;;;;;;;8.03;6.50;;;19.70;99.90;;;;;;5094809;28;20503;-59
2021/09/15 01:46:46;;;;;;;9.77;7.50;;;19.70;99.90;;;;;;5084555;28;20496;-58
2021/09/15 01:49:13;;;;;;;9.20;7.17;;;19.70;99.90;;;;;;5078082;28;20531;-59
2021/09/15 01:51:43;;;;;;;8.30;7.07;;;19.50;99.90;;;;;;5077637;28;20483;-59
2021/09/15 01:54:11;;;;;;;10.30;8.10;;;19.50;99.90;;;;;;5075475;28;20495;-58
2021/09/15 01:56:38;;;;;;;9.50;7.97;;;19.60;99.90;;;;;;5076422;28;20451;-59
2021/09/15 01:59:05;;;;;;;10.53;7.77;;;19.50;99.90;;;;;;5090678;28;20449;-59
2021/09/15 02:01:32;;;;;;;8.97;7.97;;;19.50;99.90;;;;;;5074845;28;20466;-58
2021/09/15 02:03:59;;;;;;;9.87;8.60;;;19.50;99.90;;;;;;5075040;28;20504;-59
2021/09/15 02:06:26;;;;;;;11.63;9.63;;;19.40;99.90;;;;;;5074936;28;20454;-58
2021/09/15 02:08:53;;;;;;;11.37;9.27;;;19.40;99.90;;;;;;5074831;28;20864;-60
2021/09/15 02:11:21;;;;;;;11.50;8.20;;;19.30;99.90;;;;;;5093860;28;20494;-59
2021/09/15 02:13:49;;;;;;;11.63;9.37;;;19.30;99.90;;;;;;5093753;28;20498;-58
2021/09/15 02:16:16;;;;;;;13.17;10.10;;;19.20;99.90;;;;;;5074829;28;20881;-59
2021/09/15 02:18:43;;;;;;;13.20;10.43;;;19.20;99.90;;;;;;5074750;28;20453;-59
2021/09/15 02:21:10;;;;;;;11.90;10.00;;;19.10;99.90;;;;;;5075618;28;20466;-58
2021/09/15 02:23:37;;;;;;;16.83;9.30;;;19.00;99.90;;;;;;5074867;28;20449;-59
2021/09/15 02:26:04;;;;;;;12.07;9.83;;;19.00;99.90;;;;;;5080520;28;20511;-59
2021/09/15 02:28:32;;;;;;;12.70;9.67;;;18.90;99.90;;;;;;5094518;28;21004;-60
2021/09/15 02:30:59;;;;;;;11.80;10.13;;;19.00;99.90;;;;;;5078183;28;20527;-59
2021/09/15 02:33:26;;;;;;;12.27;9.83;;;18.90;99.90;;;;;;5074424;28;20508;-59
2021/09/15 02:35:53;;;;;;;10.80;9.00;;;18.90;99.90;;;;;;5075708;28;20446;-59
2021/09/15 02:38:20;;;;;;;11.40;9.20;;;18.90;99.90;;;;;;5074512;28;20451;-58
2021/09/15 02:40:48;;;;;;;12.80;8.80;;;18.90;99.90;;;;;;5074316;28;21045;-59
2021/09/15 02:43:15;;;;;;;13.93;9.90;;;19.00;99.90;;;;;;5074244;28;20500;-59
2021/09/15 02:45:43;;;;;;;12.40;9.60;;;18.90;99.90;;;;;;5074199;28;20874;-59
2021/09/15 02:48:10;;;;;;;12.90;9.30;;;18.90;99.90;;;;;;5074424;28;20473;-59
2021/09/15 02:50:37;;;;;;;12.50;8.87;;;18.90;99.90;;;;;;5085190;28;20979;-58
2021/09/15 02:53:04;;;;;;;10.80;8.87;;;18.80;99.90;;;;;;5094334;28;20449;-59
2021/09/15 02:55:31;;;;;;;14.30;8.73;;;18.80;99.90;;;;;;5077355;28;20513;-59
2021/09/15 02:57:58;;;;;;;12.47;9.50;;;18.80;99.90;;;;;;5076001;28;20451;-58
2021/09/15 03:00:26;;;;;;;10.73;8.83;;;18.80;99.90;;;;;;5092933;28;20461;-58
2021/09/15 03:02:54;;;;;;;10.70;8.63;;;18.70;99.90;;;;;;5094430;28;20449;-59
2021/09/15 03:05:21;;;;;;;14.03;10.37;;;18.80;99.90;;;;;;5092680;28;20887;-59
2021/09/15 03:07:48;;;;;;;13.20;9.20;;;18.60;99.90;;;;;;5094198;28;20457;-59
2021/09/15 03:10:17;;;;;;;13.60;10.10;;;18.50;99.90;;;;;;5091154;28;20473;-59
2021/09/15 03:12:44;;;;;;;13.87;10.23;;;18.40;99.90;;;;;;5073805;28;20450;-57
2021/09/15 03:15:13;;;;;;;11.43;9.67;;;18.30;99.90;;;;;;5080127;28;20454;-58
2021/09/15 03:17:40;;;;;;;12.67;9.27;;;18.30;99.90;;;;;;5086981;28;20439;-58
2021/09/15 03:20:10;;;;;;;11.13;8.90;;;18.60;99.90;;;;;;5096815;28;21079;-59
2021/09/15 03:22:37;;;;;;;12.17;9.03;;;18.70;99.90;;;;;;5094364;28;20456;-58
2021/09/15 03:25:08;;;;;;;12.30;9.37;;;18.70;99.90;;;;;;5093049;28;20442;-59
2021/09/15 03:27:36;;;;;;;11.07;9.40;;;18.70;99.90;;;;;;5092875;28;20442;-58
2021/09/15 03:30:04;;;;;;;13.40;10.37;;;18.60;99.90;;;;;;5087982;28;20454;-58
2021/09/15 03:32:31;;;;;;;15.40;10.10;;;18.50;99.90;;;;;;5087772;28;20478;-57
2021/09/15 03:34:58;;;;;;;12.73;10.37;;;18.50;99.90;;;;;;5090183;28;20473;-57
2021/09/15 03:37:26;;;;;;;13.00;10.00;;;18.60;99.90;;;;;;5092759;28;20495;-57
2021/09/15 03:39:54;;;;;;;13.63;8.97;;;18.60;99.90;;;;;;5086366;28;20446;-58
2021/09/15 03:42:21;;;;;;;12.00;9.93;;;18.60;99.90;;;;;;5092498;28;20488;-59
2021/09/15 03:44:48;;;;;;;12.70;9.90;;;18.60;99.90;;;;;;5097722;28;20995;-58
2021/09/15 03:47:15;;;;;;;11.93;9.30;;;18.60;99.90;;;;;;5094714;28;20449;-59
2021/09/15 03:49:42;;;;;;;16.23;9.50;;;18.70;99.90;;;;;;5088306;28;20499;-58
2021/09/15 03:52:09;;;;;;;12.60;9.50;;;18.70;99.90;;;;;;5102212;28;20569;-58
2021/09/15 03:54:38;;;;;;;13.77;9.47;;;18.70;99.90;;;;;;5111351;28;20997;-58
2021/09/15 03:57:05;;;;;;;11.40;8.60;;;18.70;99.90;;;;;;5111605;28;20888;-57
2021/09/15 03:59:32;;;;;;;13.10;8.63;;;18.70;99.90;;;;;;5098119;28;20453;-56
2021/09/15 04:01:59;;;;;;;9.97;8.13;;;18.70;99.90;;;;;;5091594;28;20891;-56
2021/09/15 04:04:26;;;;;;;10.57;9.37;;;18.70;99.90;;;;;;5090563;28;20865;-56
2021/09/15 04:06:53;;;;;;;11.93;9.33;;;18.80;99.90;;;;;;5087758;28;20446;-56
2021/09/15 04:09:20;;;;;;;14.53;9.13;;;18.90;99.90;;;;;;5106538;28;21006;-56
2021/09/15 04:11:48;;;;;;;12.40;8.53;;;18.90;99.90;;;;;;5088575;28;20478;-56
2021/09/15 04:14:15;;;;;;;9.63;8.33;;;18.90;99.90;;;;;;5088481;28;20454;-56
2021/09/15 04:16:42;;;;;;;16.73;8.80;;;18.90;99.90;;;;;;5091427;28;20487;-56
2021/09/15 04:19:09;;;;;;;11.63;9.00;;;19.00;99.90;;;;;;5111051;28;20507;-56
2021/09/15 04:21:36;;;;;;;9.47;7.93;;;19.00;99.90;;;;;;5091432;28;20515;-56
2021/09/15 04:24:18;;;;;;;10.33;8.10;;;19.10;99.90;;;;;;5092253;28;20519;-56
2021/09/15 04:32:15;;;;;;;12.83;10.50;;;19.00;99.90;;;;;;5087303;28;20488;-56
2021/09/15 04:34:42;;;;;;;13.03;9.93;;;19.00;99.90;;;;;;5097725;28;20468;-56
2021/09/15 04:37:09;;;;;;;11.43;10.10;;;19.00;99.90;;;;;;5097023;28;20570;-56
2021/09/15 04:39:36;;;;;;;11.70;10.00;;;18.90;99.90;;;;;;5089109;28;20449;-58
2021/09/15 04:42:03;;;;;;;13.00;10.80;;;19.00;99.90;;;;;;5091405;28;20457;-58
2021/09/15 04:44:32;;;;;;;13.50;10.00;;;19.00;99.90;;;;;;5091431;28;20465;-58
2021/09/15 04:46:59;;;;;;;11.83;9.33;;;19.00;99.90;;;;;;5091744;28;20442;-58
2021/09/15 04:49:25;;;;;;;11.63;9.30;;;18.90;99.90;;;;;;5091279;28;20453;-59
2021/09/15 04:51:52;;;;;;;11.53;9.50;;;18.90;99.90;;;;;;5089411;28;20482;-58
2021/09/15 04:54:19;;;;;;;12.63;10.73;;;18.90;99.90;;;;;;5090783;28;20445;-58
2021/09/15 04:56:46;;;;;;;11.30;9.43;;;18.80;99.90;;;;;;5091308;28;20931;-58
2021/09/15 04:59:13;;;;;;;11.57;10.37;;;18.80;99.90;;;;;;5091252;28;20503;-58
2021/09/15 05:01:45;;;;;;;11.93;10.10;;;18.90;99.90;;;;;;5089292;28;20894;-59
2021/09/15 05:04:13;;;;;;;12.17;9.63;;;18.90;99.90;;;;;;5087437;28;20450;-58
2021/09/15 05:06:40;;;;;;;14.33;9.20;;;19.00;99.90;;;;;;5091519;28;20508;-57
2021/09/15 05:09:07;;;;;;;11.40;9.80;;;18.90;99.90;;;;;;5091399;28;20895;-58
2021/09/15 05:11:34;;;;;;;14.73;9.87;;;18.90;99.90;;;;;;5085933;28;20478;-58
2021/09/15 05:14:04;;;;;;;11.70;10.07;;;18.90;99.90;;;;;;5080745;28;20513;-59
2021/09/15 05:16:32;;;;;;;11.70;9.20;;;19.00;99.90;;;;;;5102014;28;20887;-59
2021/09/15 05:19:00;;;;;;;9.37;8.27;;;19.00;99.90;;;;;;5093961;28;20525;-59
2021/09/15 05:21:27;;;;;;;11.03;9.00;;;19.10;99.90;;;;;;5090762;28;20466;-58
2021/09/15 05:23:54;;;;;;;8.50;7.67;;;19.10;99.90;;;;;;5091925;28;20441;-58
2021/09/15 05:26:21;;;;;;;13.17;9.20;;;19.20;99.90;;;;;;5097945;28;20445;-58
2021/09/15 05:28:48;;;;;;;10.10;8.33;;;19.30;99.90;;;;;;5111073;28;20449;-58
2021/09/15 05:31:16;;;;;;;12.90;9.00;;;19.30;99.90;;;;;;5096189;28;20488;-58
2021/09/15 05:33:43;;;;;;;14.27;9.37;;;19.30;99.90;;;;;;5091355;28;20446;-59
2021/09/15 05:36:11;;;;;;;11.97;9.00;;;19.40;99.90;;;;;;5099389;28;20447;-58
2021/09/15 05:38:38;;;;;;;13.50;9.30;;;19.30;99.90;;;;;;5072516;28;20446;-58
2021/09/15 05:41:05;;;;;;;11.20;8.87;;;19.20;99.90;;;;;;5074648;28;20885;-58
2021/09/15 05:43:33;;;;;;;11.53;9.10;;;19.30;99.90;;;;;;5084547;28;21019;-58
2021/09/15 05:46:01;;;;;;;16.03;10.30;;;19.40;99.90;;;;;;5076940;28;21110;-58
2021/09/15 05:48:28;;;;;;;10.87;9.60;;;19.30;99.90;;;;;;5085869;28;20461;-58
2021/09/15 05:50:55;;;;;;;12.27;9.43;;;19.20;99.90;;;;;;5085256;28;20467;-59
2021/09/15 05:53:24;;;;;;;10.80;8.70;;;19.20;99.90;;;;;;5071292;28;20569;-58
2021/09/15 05:55:51;;;;;;;15.77;10.20;;;19.20;99.90;;;;;;5085327;28;20447;-59
2021/09/15 05:58:20;;;;;;;11.63;9.37;;;19.20;99.90;;;;;;5094797;28;20453;-57
2021/09/15 06:00:47;;;;;;;14.37;9.93;;;19.20;99.90;;;;;;5087267;28;20990;-57
2021/09/15 06:03:14;;;;;;;15.00;9.60;;;19.20;99.90;;;;;;5088973;28;20499;-58
2021/09/15 06:05:41;;;;;;;12.50;10.20;;;19.30;99.90;;;;;;5088708;28;20504;-58
2021/09/15 06:08:08;;;;;;;15.50;10.23;;;19.30;99.90;;;;;;5090736;28;20503;-58
2021/09/15 06:10:37;;;;;;;13.13;9.37;;;19.30;99.90;;;;;;5093879;28;20466;-58
2021/09/15 06:13:04;;;;;;;15.20;9.70;;;19.20;99.90;;;;;;5085233;28;21059;-58
2021/09/15 06:15:32;;;;;;;17.30;10.83;;;19.20;99.90;;;;;;5091867;28;20485;-58
2021/09/15 06:17:59;;;;;;;13.77;10.60;;;19.20;99.90;;;;;;5095354;28;20942;-58
2021/09/15 06:20:30;;;;;;;14.20;10.50;;;19.20;99.90;;;;;;5102500;28;20628;-58
2021/09/15 06:22:57;;;;;;;14.10;10.30;;;19.30;99.90;;;;;;5092295;28;20467;-58
2021/09/15 06:25:26;;;;;;;15.83;9.70;;;19.40;99.90;;;;;;5095728;28;20827;-57
2021/09/15 06:27:55;;;;;;;11.60;9.47;;;19.40;99.90;;;;;;5087102;28;20513;-56
2021/09/15 06:30:23;;;;;;;13.60;10.23;;;19.40;99.90;;;;;;5094121;28;20559;-58
2021/09/15 06:32:53;;;;;;;12.37;10.80;;;19.30;99.90;;;;;;5089360;28;21082;-58
2021/09/15 06:35:22;;;;;;;21.07;10.50;;;19.30;99.90;;;;;;5086460;28;20469;-58
2021/09/15 06:37:49;;;;;;;15.10;11.40;;;19.30;99.90;;;;;;5097356;28;20442;-60
2021/09/15 06:40:16;;;;;;;14.90;10.43;;;19.30;99.90;;;;;;5094269;28;20519;-57
2021/09/15 06:42:43;;;;;;;19.93;11.93;;;19.30;99.90;;;;;;5114034;28;20433;-57
2021/09/15 06:45:15;;;;;;;12.60;10.27;;;19.30;99.90;;;;;;5113898;28;20445;-58
2021/09/15 06:47:43;;;;;;;14.37;9.97;;;19.30;99.90;;;;;;5091079;28;20958;-57
2021/09/15 06:50:12;;;;;;;12.40;10.60;;;19.40;99.90;;;;;;5095707;28;20511;-57
2021/09/15 06:52:39;;;;;;;13.60;10.20;;;19.40;99.90;;;;;;5091242;28;20478;-57
2021/09/15 06:55:07;;;;;;;13.67;10.53;;;19.50;99.90;;;;;;5094071;28;20438;-58
2021/09/15 06:57:34;;;;;;;12.63;10.07;;;19.50;99.90;;;;;;5094272;28;20503;-58
2021/09/15 07:00:01;;;;;;;13.97;10.50;;;19.50;99.90;;;;;;5093672;28;20499;-56
2021/09/15 07:02:30;;;;;;;15.80;10.90;;;19.60;99.90;;;;;;5078142;28;20450;-58
2021/09/15 07:04:58;;;;;;;17.03;10.03;;;19.60;99.90;;;;;;5074930;28;20451;-58
2021/09/15 07:07:25;;;;;;;12.77;10.23;;;19.60;99.90;;;;;;5086267;28;20486;-58
2021/09/15 07:09:52;;;;;;;14.20;10.33;;;19.70;99.90;;;;;;5072359;28;20447;-58
2021/09/15 07:12:19;;;;;;;13.30;10.40;;;19.80;99.90;;;;;;5071750;28;20846;-58
2021/09/15 07:14:46;;;;;;;15.80;9.87;;;19.90;99.90;;;;;;5072324;28;20454;-59
2021/09/15 07:17:14;;;;;;;11.83;9.83;;;20.00;99.90;;;;;;5073083;28;20543;-58
2021/09/15 07:19:42;;;;;;;12.18;10.30;;;20.10;99.90;;;;;;5087604;28;20437;-58
2021/09/15 07:22:09;;;;;;;9.80;8.80;;;20.20;99.90;;;;;;5092649;28;20717;-59
2021/09/15 07:24:36;;;;;;;14.23;9.87;;;20.40;99.90;;;;;;5075640;28;20538;-58
2021/09/15 07:27:04;;;;;;;12.70;9.77;;;20.50;99.90;;;;;;5091770;28;20461;-58
2021/09/15 07:29:31;;;;;;;10.47;9.20;;;20.60;99.90;;;;;;5088052;28;20450;-57
2021/09/15 07:31:58;;;;;;;10.40;9.30;;;20.70;99.90;;;;;;5090488;28;20562;-58
2021/09/15 07:34:26;;;;;;;11.50;9.40;;;20.80;99.90;;;;;;5085417;28;20955;-58
2021/09/15 07:36:54;;;;;;;13.97;10.47;;;20.90;99.90;;;;;;5073092;28;21027;-58
2021/09/15 07:39:22;;;;;;;13.20;9.90;;;21.00;99.90;;;;;;5079904;28;21015;-60
2021/09/15 07:41:49;;;;;;;13.77;11.03;;;20.80;99.90;;;;;;5073341;28;20495;-58
2021/09/15 07:44:15;;;;;;;13.43;10.60;;;20.60;99.90;;;;;;5076427;28;20520;-58
2021/09/15 07:46:43;;;;;;;14.03;10.43;;;20.30;99.90;;;;;;5084986;28;20959;-58
2021/09/15 07:49:10;;;;;;;13.10;10.00;;;20.40;99.90;;;;;;5080845;28;20492;-58
2021/09/15 07:51:37;;;;;;;13.33;9.60;;;20.60;99.90;;;;;;5092637;28;20466;-57
2021/09/15 07:54:05;;;;;;;15.27;9.83;;;20.70;99.90;;;;;;5073953;28;20463;-58
2021/09/15 07:56:32;;;;;;;12.30;9.23;;;20.80;99.90;;;;;;5072694;28;20538;-58
2021/09/15 07:58:59;;;;;;;13.55;10.18;;;21.00;99.90;;;;;;5079385;28;20501;-58
2021/09/15 08:01:26;;;;;;;13.80;10.63;;;21.30;99.90;;;;;;5097534;28;20238;-58
2021/09/15 08:03:54;;;;;;;14.10;10.90;;;21.40;99.90;;;;;;5091608;28;20470;-59
2021/09/15 08:06:21;;;;;;;13.10;10.17;;;21.40;99.90;;;;;;5093292;28;20445;-58
2021/09/15 08:08:48;;;;;;;14.43;11.00;;;21.40;99.90;;;;;;5112089;28;20444;-59
2021/09/15 08:11:16;;;;;;;14.83;10.40;;;21.40;99.90;;;;;;5111630;28;20866;-58
2021/09/15 08:13:44;;;;;;;13.37;11.27;;;21.40;99.90;;;;;;5110671;28;20469;-58
2021/09/15 08:16:11;;;;;;;14.47;11.30;;;21.40;99.90;;;;;;5112031;28;20490;-58
2021/09/15 08:18:38;;;;;;;16.33;12.33;;;21.30;99.90;;;;;;5102683;28;20880;-60
2021/09/15 08:21:06;;;;;;;15.60;11.50;;;21.20;99.90;;;;;;5092626;28;20458;-58
2021/09/15 08:23:33;;;;;;;13.17;11.67;;;21.30;99.90;;;;;;5093816;28;20471;-58
2021/09/15 08:26:01;;;;;;;13.90;11.73;;;21.20;99.90;;;;;;5092743;28;20442;-58
2021/09/15 08:28:35;;;;;;;15.97;12.33;;;21.10;99.90;;;;;;5093763;28;20438;-58
2021/09/15 08:31:02;;;;;;;17.57;12.57;;;20.90;99.90;;;;;;5089879;28;20457;-60
2021/09/15 08:33:29;;;;;;;18.57;11.27;;;20.70;99.90;;;;;;5094369;28;20472;-60
2021/09/15 08:35:56;;;;;;;15.40;12.07;;;20.70;99.90;;;;;;5092274;28;20450;-58
2021/09/15 08:38:23;;;;;;;15.80;12.30;;;20.60;99.90;;;;;;5092450;28;20499;-57
2021/09/15 08:40:53;;;;;;;18.77;12.17;;;20.60;99.90;;;;;;5099221;28;20829;-59
2021/09/15 08:43:20;;;;;;;18.53;12.30;;;20.60;99.90;;;;;;5100827;28;21518;-59
2021/09/15 08:45:49;;;;;;;15.87;12.00;;;20.60;99.90;;;;;;5094172;28;20938;-58
2021/09/15 08:48:19;;;;;;;18.70;12.93;;;20.60;99.90;;;;;;5110371;28;20506;-58
2021/09/15 08:50:49;;;;;;;17.70;13.07;;;20.60;99.90;;;;;;5110028;28;20461;-57
2021/09/15 08:53:17;;;;;;;18.73;11.60;;;20.60;99.90;;;;;;5099064;28;20489;-58
2021/09/15 08:55:46;;;;;;;17.50;12.37;;;20.60;99.90;;;;;;5100657;28;20446;-58
2021/09/15 08:58:14;;;;;;;14.33;11.80;;;20.70;99.90;;;;;;5103939;28;20447;-58
2021/09/15 09:00:41;;;;;;;17.83;13.10;;;20.80;99.90;;;;;;5072494;28;20558;-58
2021/09/15 09:03:09;;;;;;;15.43;11.93;;;20.90;99.90;;;;;;5072804;28;20465;-58
2021/09/15 09:05:36;;;;;;;14.97;11.40;;;20.90;99.90;;;;;;5086779;28;20457;-58
2021/09/15 09:08:04;;;;;;;16.53;12.80;;;21.00;99.90;;;;;;5092126;28;20518;-58
2021/09/15 09:10:34;;;;;;;16.60;12.30;;;21.20;99.90;;;;;;5086059;28;20984;-59
2021/09/15 09:13:01;;;;;;;14.00;11.37;;;21.40;99.90;;;;;;5076562;28;20509;-59
2021/09/15 09:15:29;;;;;;;13.77;10.30;;;21.50;99.90;;;;;;5091829;28;20454;-58
2021/09/15 09:18:00;;;;;;;16.90;12.30;;;21.70;99.90;;;;;;5079580;28;20454;-58
2021/09/15 09:20:31;;;;;;;16.00;11.97;;;21.90;99.90;;;;;;5085616;28;20523;-58
2021/09/15 09:23:14;;;;;;;15.77;12.43;;;22.10;99.90;;;;;;5103830;28;20446;-58
2021/09/15 09:25:45;;;;;;;14.83;12.80;;;22.10;99.90;;;;;;5092166;28;20450;-58
2021/09/15 09:28:21;;;;;;;15.27;12.60;;;22.10;99.90;;;;;;5110233;28;20432;-58
2021/09/15 09:30:50;;;;;;;16.87;14.00;;;22.20;99.90;;;;;;5110105;28;20529;-58
2021/09/15 09:33:18;;;;;;;19.27;14.77;;;22.40;99.90;;;;;;5102320;28;20473;-59
2021/09/15 09:35:48;;;;;;;16.57;13.67;;;22.40;99.90;;;;;;5088044;28;21009;-58
2021/09/15 09:38:26;;;;;;;23.53;14.77;;;22.50;99.90;;;;;;5101711;28;20493;-58
2021/09/15 09:40:59;;;;;;;21.67;14.30;;;22.50;99.90;;;;;;5110098;28;20457;-58
2021/09/15 09:43:28;;;;;;;19.77;14.70;;;22.60;99.90;;;;;;5091413;28;20461;-59
2021/09/15 09:45:55;;;;;;;15.03;12.50;;;22.70;99.90;;;;;;5091450;28;20453;-59
2021/09/15 09:48:46;;;;;;;25.37;15.10;;;22.90;99.90;;;;;;5088360;28;20508;-58
2021/09/15 09:51:29;;;;;;;17.70;13.90;;;23.20;99.90;;;;;;5075305;28;20486;-59
2021/09/15 09:54:14;;;;;;;16.73;13.93;;;23.10;99.90;;;;;;5086440;28;20568;-59
2021/09/15 09:56:43;;;;;;;18.90;14.07;;;22.90;99.90;;;;;;5087781;28;20445;-59
2021/09/15 09:59:11;;;;;;;16.93;13.50;;;23.30;99.90;;;;;;5086092;28;20460;-57
2021/09/15 10:01:41;;;;;;;16.97;12.13;;;23.60;99.90;;;;;;5100981;28;20470;-55
2021/09/15 10:04:09;;;;;;;14.83;12.07;;;23.60;99.90;;;;;;5094285;28;20473;-58
2021/09/15 10:06:39;;;;;;;14.67;12.50;;;23.70;99.90;;;;;;5093554;28;20984;-58
2021/09/15 10:09:07;;;;;;;14.40;12.70;;;23.30;99.90;;;;;;5094262;28;20446;-58
2021/09/15 10:11:35;;;;;;;18.70;11.50;;;23.20;99.90;;;;;;5096674;28;20973;-59
2021/09/15 10:14:03;;;;;;;14.97;11.07;;;23.10;99.90;;;;;;5113083;28;21372;-57
2021/09/15 10:16:34;;;;;;;17.70;12.13;;;23.00;99.90;;;;;;5102997;28;20828;-57
2021/09/15 10:19:05;;;;;;;15.53;12.30;;;23.30;99.90;;;;;;5078965;28;20451;-57
2021/09/15 10:21:34;;;;;;;16.20;11.13;;;23.10;99.90;;;;;;5074290;28;20467;-57
2021/09/15 10:24:04;;;;;;;14.77;11.57;;;23.10;99.90;;;;;;5077337;28;20533;-57
2021/09/15 10:26:37;;;;;;;14.03;12.27;;;23.20;99.90;;;;;;5074404;28;20443;-57
2021/09/15 10:29:24;;;;;;;16.70;13.00;;;23.20;99.90;;;;;;5089120;28;20453;-56
2021/09/15 10:31:58;;;;;;;17.70;14.17;;;23.20;99.90;;;;;;5090081;28;20514;-57
2021/09/15 10:34:47;;;;;;;18.20;13.83;;;22.70;99.90;;;;;;5083073;28;20527;-58
2021/09/15 10:37:48;;;;;;;16.87;14.23;;;22.40;99.90;;;;;;5086309;28;20472;-58
2021/09/15 10:40:41;;;;;;;18.07;12.90;;;22.70;99.90;;;;;;5011144;28;20552;-60
2021/09/15 10:43:50;;;;;;;17.10;13.20;;;23.30;99.90;;;;;;5089785;28;20466;-60
2021/09/15 10:46:27;;;;;;;17.37;13.67;;;23.90;99.90;;;;;;5095892;28;20440;-58
2021/09/15 10:49:31;;;;;;;14.80;12.70;;;24.00;99.90;;;;;;5112747;28;20443;-57
2021/09/15 10:52:26;;;;;;;17.80;13.73;;;24.00;99.90;;;;;;5112507;28;20861;-57
2021/09/15 10:54:55;;;;;;;15.90;13.30;;;23.70;99.90;;;;;;5099888;28;20477;-57
2021/09/15 10:57:34;;;;;;;14.53;11.20;;;23.90;99.90;;;;;;5089877;28;20440;-57
2021/09/15 11:00:05;;;;;;;16.00;13.70;;;24.20;99.90;;;;;;5091806;28;20809;-57
2021/09/15 11:02:34;;;;;;;17.70;14.70;;;24.50;99.90;;;;;;5089890;28;20555;-57
2021/09/15 11:05:21;;;;;;;17.67;14.60;;;24.40;99.90;;;;;;5092793;28;20442;-59
2021/09/15 11:07:59;;;;;;;17.80;14.30;;;24.20;99.90;;;;;;5093408;28;20530;-57
2021/09/15 11:10:40;;;;;;;19.60;14.17;;;24.10;99.90;;;;;;5090443;28;21000;-57
2021/09/15 11:13:10;;;;;;;21.43;14.67;;;24.40;99.90;;;;;;5093055;28;20482;-58
2021/09/15 11:15:38;;;;;;;23.10;15.80;;;24.60;99.90;;;;;;5090260;28;20450;-58
2021/09/15 11:18:06;;;;;;;17.63;14.03;;;24.30;99.90;;;;;;5093051;28;20924;-58
2021/09/15 11:20:38;;;;;;;15.93;13.20;;;23.80;99.90;;;;;;5100220;28;20475;-59
2021/09/15 11:23:07;;;;;;;15.00;12.27;;;23.70;99.90;;;;;;5084507;28;20450;-58
2021/09/15 11:25:36;;;;;;;16.07;12.80;;;23.70;99.90;;;;;;5085490;28;20450;-58
2021/09/15 11:28:09;;;;;;;14.83;12.13;;;23.80;99.90;;;;;;5079005;28;20523;-57
2021/09/15 11:30:37;;;;;;;16.00;12.60;;;23.80;99.90;;;;;;5080077;28;20493;-57
2021/09/15 11:33:05;;;;;;;18.20;13.20;;;23.60;99.90;;;;;;5093822;28;20447;-57
2021/09/15 11:35:36;;;;;;;17.03;12.80;;;23.50;99.90;;;;;;5093963;28;20935;-57
2021/09/15 11:38:05;;;;;;;15.60;13.23;;;22.90;99.90;;;;;;5093217;28;20446;-57
2021/09/15 11:40:34;;;;;;;14.53;12.13;;;22.80;99.90;;;;;;5093290;28;20469;-58
2021/09/15 11:43:08;;;;;;;18.10;13.57;;;22.70;99.90;;;;;;5092846;28;20450;-56
2021/09/15 11:45:36;;;;;;;15.50;12.87;;;22.60;99.90;;;;;;5093580;28;20472;-57
2021/09/15 11:48:04;;;;;;;16.80;12.87;;;22.70;99.90;;;;;;5093255;28;20450;-58
2021/09/15 11:50:34;;;;;;;20.77;12.93;;;22.80;99.90;;;;;;5092975;28;20516;-57
2021/09/15 11:53:04;;;;;;;16.67;12.20;;;22.80;99.90;;;;;;5092715;28;20446;-57
2021/09/15 11:55:35;;;;;;;19.47;12.60;;;23.00;99.90;;;;;;5093302;28;20452;-58
2021/09/15 11:58:02;;;;;;;15.80;11.23;;;23.40;99.90;;;;;;5093340;28;20452;-58
2021/09/15 12:00:30;;;;;;;14.43;12.37;;;23.60;99.90;;;;;;5092663;28;20897;-57
2021/09/15 12:03:02;;;;;;;17.70;12.30;;;23.60;99.90;;;;;;5092275;28;20496;-57
2021/09/15 12:05:30;;;;;;;15.60;12.40;;;23.10;99.90;;;;;;5093067;28;21129;-57
2021/09/15 12:07:58;;;;;;;13.93;11.50;;;22.90;99.90;;;;;;5093106;28;20863;-57
2021/09/15 12:10:26;;;;;;;16.37;13.67;;;22.90;99.90;;;;;;5092253;28;20522;-57
2021/09/15 12:12:58;;;;;;;13.77;10.80;;;22.70;99.90;;;;;;5092265;28;20499;-57
2021/09/15 12:15:25;;;;;;;15.97;11.17;;;22.80;99.90;;;;;;5092967;28;20869;-56
2021/09/15 12:17:57;;;;;;;12.63;10.50;;;22.60;99.90;;;;;;5092652;28;20499;-58
2021/09/15 12:20:43;;;;;;;12.40;9.17;;;22.50;99.90;;;;;;5092625;28;20543;-57
2021/09/15 12:23:11;;;;;;;15.90;11.73;;;22.60;99.90;;;;;;5079697;28;20473;-58
2021/09/15 12:25:39;;;;;;;14.80;11.03;;;22.60;99.90;;;;;;5092633;28;20446;-57
2021/09/15 12:28:07;;;;;;;15.73;11.47;;;22.70;99.90;;;;;;5092365;28;20449;-57
2021/09/15 12:30:35;;;;;;;16.10;12.33;;;22.60;99.90;;;;;;5092258;28;20499;-59
2021/09/15 12:33:02;;;;;;;15.30;11.00;;;22.90;99.90;;;;;;5091645;28;20533;-58
2021/09/15 12:35:34;;;;;;;14.90;11.10;;;23.30;99.90;;;;;;5092389;28;21014;-58
2021/09/15 12:38:06;;;;;;;14.20;11.00;;;23.70;99.90;;;;;;5092550;28;20499;-56
2021/09/15 12:40:34;;;;;;;17.17;12.00;;;24.10;99.90;;;;;;5092028;28;20470;-58
2021/09/15 12:43:04;;;;;;;14.07;11.03;;;24.30;99.90;;;;;;5075626;28;20459;-58
2021/09/15 12:45:33;;;;;;;14.47;11.17;;;24.40;99.90;;;;;;5071980;28;20443;-57
2021/09/15 12:48:01;;;;;;;15.10;10.53;;;24.40;99.90;;;;;;5071912;28;20497;-57